createdAt,value
2023-02-03T00:00:18.121Z,3.79
2023-02-03T00:02:50.074Z,3.74
2023-02-03T00:05:25.283Z,3.75
2023-02-03T00:08:00.080Z,3.71
2023-02-03T00:10:32.804Z,3.72
2023-02-03T00:13:07.981Z,3.68
2023-02-03T00:15:39.630Z,3.63
2023-02-03T00:18:16.499Z,3.58
2023-02-03T00:20:48.180Z,3.65
2023-02-03T00:23:22.308Z,3.59
2023-02-03T00:25:56.890Z,3.55
2023-02-03T00:28:31.863Z,3.53
2023-02-03T00:31:04.165Z,3.51
2023-02-03T00:33:35.891Z,3.53
2023-02-03T00:36:09.369Z,3.53
2023-02-03T00:38:49.025Z,3.55
2023-02-03T00:41:21.960Z,3.58
2023-02-03T00:43:57.235Z,3.62
2023-02-03T00:46:29.321Z,3.66
2023-02-03T00:51:59.985Z,3.64
2023-02-03T00:54:33.630Z,3.69
2023-02-03T00:57:05.857Z,3.68
2023-02-03T00:59:39.080Z,3.63
2023-02-03T01:02:10.816Z,3.69
2023-02-03T01:04:45.889Z,3.66
2023-02-03T01:07:17.735Z,3.67
2023-02-03T01:09:49.416Z,3.62
2023-02-03T01:12:22.882Z,3.58
2023-02-03T01:14:54.615Z,3.57
2023-02-03T01:17:30.047Z,3.61
2023-02-03T01:20:02.334Z,3.62
2023-02-03T01:22:34.130Z,3.62
2023-02-03T01:25:06.588Z,3.63
2023-02-03T01:27:43.475Z,3.62
2023-02-03T01:30:18.085Z,3.64
2023-02-03T01:32:49.809Z,3.60
2023-02-03T01:35:21.835Z,3.64
2023-02-03T01:37:53.669Z,3.68
2023-02-03T01:40:25.875Z,3.64
2023-02-03T01:42:57.659Z,3.55
2023-02-03T01:45:31.380Z,3.56
2023-02-03T01:48:04.786Z,3.50
2023-02-03T01:50:37.744Z,3.50
2023-02-03T01:53:18.277Z,3.43
2023-02-03T01:55:50.649Z,3.37
2023-02-03T01:58:29.862Z,3.33
2023-02-03T02:01:03.175Z,3.30
2023-02-03T02:03:46.619Z,3.17
2023-02-03T02:06:22.552Z,3.11
2023-02-03T02:08:57.841Z,3.13
2023-02-03T02:11:30.187Z,3.17
2023-02-03T02:14:03.667Z,3.18
2023-02-03T02:16:53.630Z,3.20
2023-02-03T02:19:59.258Z,3.08
2023-02-03T02:22:43.630Z,3.00
2023-02-03T02:26:07.953Z,3.04
2023-02-03T02:29:17.320Z,3.06
2023-02-03T02:32:15.624Z,3.05
2023-02-03T02:35:24.731Z,3.05
2023-02-03T02:38:24.249Z,2.94
2023-02-03T02:41:17.502Z,2.93
2023-02-03T02:43:55.188Z,2.87
2023-02-03T02:46:52.554Z,2.93
2023-02-03T02:49:44.638Z,2.88
2023-02-03T02:52:18.979Z,2.92
2023-02-03T02:54:57.034Z,2.89
2023-02-03T02:57:36.990Z,2.78
2023-02-03T03:00:12.196Z,2.73
2023-02-03T03:02:44.449Z,2.65
2023-02-03T03:05:19.586Z,2.68
2023-02-03T03:08:04.294Z,2.68
2023-02-03T03:10:43.439Z,2.52
2023-02-03T03:13:25.537Z,2.50
2023-02-03T03:16:07.736Z,2.45
2023-02-03T03:18:51.112Z,2.42
2023-02-03T03:21:28.014Z,2.42
2023-02-03T03:24:04.220Z,2.44
2023-02-03T03:26:58.651Z,2.43
2023-02-03T03:29:46.515Z,2.39
2023-02-03T03:32:19.419Z,2.39
2023-02-03T03:34:52.575Z,2.50
2023-02-03T03:37:35.634Z,2.47
2023-02-03T03:40:18.281Z,2.50
2023-02-03T03:43:03.708Z,2.48
2023-02-03T03:45:47.118Z,2.47
2023-02-03T03:49:00.752Z,2.54
2023-02-03T03:51:35.703Z,2.55
2023-02-03T03:54:14.319Z,2.52
2023-02-03T03:57:02.760Z,2.51
2023-02-03T03:59:39.658Z,2.56
2023-02-03T04:02:14.232Z,2.56
2023-02-03T04:04:48.492Z,2.57
2023-02-03T04:07:44.689Z,2.61
2023-02-03T04:10:38.427Z,2.64
2023-02-03T04:13:12.199Z,2.72
2023-02-03T04:15:43.853Z,2.73
2023-02-03T04:18:16.550Z,2.76
2023-02-03T04:20:48.262Z,2.73
2023-02-03T04:23:19.936Z,2.79
2023-02-03T04:25:51.600Z,2.79
2023-02-03T04:28:26.067Z,2.73
2023-02-03T04:31:01.198Z,2.72
2023-02-03T04:33:32.920Z,2.74
2023-02-03T04:36:07.931Z,2.81
2023-02-03T04:38:39.618Z,2.89
2023-02-03T04:41:14.277Z,2.95
2023-02-03T04:43:48.123Z,3.02
2023-02-03T04:46:20.132Z,3.09
2023-02-03T04:48:51.872Z,3.15
2023-02-03T04:51:26.586Z,3.21
2023-02-03T04:53:58.279Z,3.23
2023-02-03T04:56:29.979Z,3.28
2023-02-03T04:59:01.774Z,3.30
2023-02-03T05:01:33.463Z,3.30
2023-02-03T05:04:05.164Z,3.39
2023-02-03T05:06:36.835Z,3.34
2023-02-03T05:09:09.653Z,3.40
2023-02-03T05:11:44.468Z,3.42
2023-02-03T05:14:25.770Z,3.47
2023-02-03T05:16:57.412Z,3.50
2023-02-03T05:19:29.082Z,3.55
2023-02-03T05:22:00.738Z,3.60
2023-02-03T05:24:36.701Z,3.64
2023-02-03T05:27:14.164Z,3.65
2023-02-03T05:29:45.830Z,3.72
2023-02-03T05:32:17.634Z,3.77
2023-02-03T05:34:49.344Z,3.84
2023-02-03T05:37:21.037Z,3.92
2023-02-03T05:39:53.011Z,3.97
2023-02-03T05:42:24.736Z,3.99
2023-02-03T05:44:58.791Z,4.01
2023-02-03T05:47:33.094Z,4.01
2023-02-03T05:50:06.476Z,4.06
2023-02-03T05:52:38.248Z,4.08
2023-02-03T05:55:09.957Z,4.13
2023-02-03T05:57:42.086Z,4.15
2023-02-03T06:00:16.723Z,4.20
2023-02-03T06:02:58.915Z,4.22
2023-02-03T06:05:32.956Z,4.21
2023-02-03T06:08:09.309Z,4.22
2023-02-03T06:10:41.512Z,4.29
2023-02-03T06:13:15.457Z,4.32
2023-02-03T06:15:47.164Z,4.35
2023-02-03T06:18:18.802Z,4.38
2023-02-03T06:20:53.643Z,4.40
2023-02-03T06:23:27.513Z,4.46
2023-02-03T06:26:00.476Z,4.51
2023-02-03T06:28:33.619Z,4.57
2023-02-03T06:31:08.273Z,4.57
2023-02-03T06:33:45.099Z,4.60
2023-02-03T06:36:16.844Z,4.65
2023-02-03T06:38:48.508Z,4.64
2023-02-03T06:41:22.308Z,4.68
2023-02-03T06:43:54.103Z,4.69
2023-02-03T06:46:29.856Z,4.72
2023-02-03T06:49:01.733Z,4.76
2023-02-03T06:51:33.755Z,4.78
2023-02-03T06:54:05.468Z,4.80
2023-02-03T06:56:39.949Z,4.84
2023-02-03T06:59:11.745Z,4.82
2023-02-03T07:01:46.549Z,4.84
2023-02-03T07:04:21.443Z,4.91
2023-02-03T07:06:57.784Z,4.98
2023-02-03T07:09:29.445Z,5.00
2023-02-03T07:12:08.113Z,5.00
2023-02-03T07:14:41.274Z,5.09
2023-02-03T07:17:12.974Z,5.12
2023-02-03T07:19:46.111Z,5.13
2023-02-03T07:22:22.792Z,5.17
2023-02-03T07:24:54.443Z,5.27
2023-02-03T07:27:27.993Z,5.28
2023-02-03T07:30:00.463Z,5.31
2023-02-03T07:32:34.455Z,5.38
2023-02-03T07:35:06.383Z,5.40
2023-02-03T07:37:41.404Z,5.37
2023-02-03T07:40:14.186Z,5.41
2023-02-03T07:42:50.094Z,5.44
2023-02-03T07:45:24.676Z,5.46
2023-02-03T07:47:59.089Z,5.47
2023-02-03T07:50:33.110Z,5.49
2023-02-03T07:53:11.130Z,5.52
2023-02-03T07:55:43.102Z,5.54
2023-02-03T07:58:17.945Z,5.56
2023-02-03T08:00:49.601Z,5.62
2023-02-03T08:03:24.027Z,5.67
2023-02-03T08:05:55.840Z,5.64
2023-02-03T08:08:31.858Z,5.71
2023-02-03T08:11:03.679Z,5.76
2023-02-03T08:13:35.373Z,5.81
2023-02-03T08:16:08.295Z,5.83
2023-02-03T08:18:40.044Z,5.85
2023-02-03T08:21:11.827Z,5.89
2023-02-03T08:23:46.183Z,5.92
2023-02-03T08:26:18.175Z,5.95
2023-02-03T08:28:53.459Z,5.97
2023-02-03T08:31:25.702Z,6.00
2023-02-03T08:34:02.090Z,6.02
2023-02-03T08:36:33.880Z,6.02
2023-02-03T08:42:06.904Z,6.12
2023-02-03T08:44:41.798Z,6.17
2023-02-03T08:47:13.496Z,6.22
2023-02-03T08:49:46.821Z,6.22
2023-02-03T08:52:19.216Z,6.25
2023-02-03T08:54:54.091Z,6.30
2023-02-03T08:57:25.662Z,6.32
2023-02-03T08:59:59.605Z,6.34
2023-02-03T09:02:31.365Z,6.37
2023-02-03T09:05:03.395Z,6.33
2023-02-03T09:07:35.292Z,6.36
2023-02-03T09:10:10.534Z,6.31
2023-02-03T09:12:42.518Z,6.34
2023-02-03T09:15:17.276Z,6.34
2023-02-03T09:17:48.765Z,6.34
2023-02-03T09:20:20.646Z,6.36
2023-02-03T09:23:01.471Z,6.37
2023-02-03T09:25:37.371Z,6.39
2023-02-03T09:28:17.961Z,6.41
2023-02-03T09:30:49.792Z,6.44
2023-02-03T09:33:21.489Z,6.48
2023-02-03T09:35:56.930Z,6.49
2023-02-03T09:38:35.185Z,6.51
2023-02-03T09:41:44.664Z,6.56
2023-02-03T09:44:22.194Z,6.56
2023-02-03T09:47:00.869Z,6.58
2023-02-03T09:49:46.806Z,6.54
2023-02-03T09:52:25.234Z,6.53
2023-02-03T09:55:30.340Z,6.58
2023-02-03T09:58:23.060Z,6.55
2023-02-03T10:00:58.857Z,6.55
2023-02-03T10:04:03.687Z,6.61
2023-02-03T10:06:41.563Z,6.58
2023-02-03T10:09:38.319Z,6.57
2023-02-03T10:12:19.048Z,6.63
2023-02-03T10:15:11.246Z,6.61
2023-02-03T10:17:57.577Z,6.64
2023-02-03T10:20:44.711Z,6.65
2023-02-03T10:23:26.869Z,6.69
2023-02-03T10:26:05.477Z,6.73
2023-02-03T10:28:40.591Z,6.78
2023-02-03T10:31:21.139Z,6.82
2023-02-03T10:34:04.968Z,6.87
2023-02-03T10:37:02.290Z,6.97
2023-02-03T10:39:41.432Z,6.99
2023-02-03T10:42:13.823Z,7.06
2023-02-03T10:44:54.442Z,7.21
2023-02-03T10:47:40.972Z,7.22
2023-02-03T10:50:21.397Z,7.23
2023-02-03T10:53:23.960Z,7.24
2023-02-03T10:56:10.596Z,7.19
2023-02-03T11:01:49.578Z,7.24
2023-02-03T11:04:33.655Z,7.29
2023-02-03T11:07:21.401Z,7.29
2023-02-03T11:09:53.147Z,7.34
2023-02-03T11:12:24.839Z,7.37
2023-02-03T11:15:05.305Z,7.40
2023-02-03T11:17:39.715Z,7.44
2023-02-03T11:20:16.775Z,7.47
2023-02-03T11:22:48.759Z,7.50
2023-02-03T11:25:38.652Z,7.52
2023-02-03T11:28:14.477Z,7.49
2023-02-03T11:30:46.426Z,7.54
2023-02-03T11:33:27.572Z,7.52
2023-02-03T11:36:05.286Z,7.55
2023-02-03T11:38:37.000Z,7.55
2023-02-03T11:41:17.466Z,7.59
2023-02-03T11:43:56.033Z,7.57
2023-02-03T11:46:27.840Z,7.67
2023-02-03T11:49:38.039Z,7.64
2023-02-03T11:52:24.660Z,7.68
2023-02-03T11:55:26.828Z,7.68
2023-02-03T11:58:12.209Z,7.70
2023-02-03T12:01:11.774Z,7.73
2023-02-03T12:04:33.951Z,7.78
2023-02-03T12:07:27.223Z,7.79
2023-02-03T12:10:07.401Z,7.79
2023-02-03T12:12:45.125Z,7.77
2023-02-03T12:15:32.773Z,7.81
2023-02-03T12:18:16.654Z,7.80
2023-02-03T12:21:10.551Z,7.77
2023-02-03T12:24:04.020Z,7.73
2023-02-03T12:26:50.330Z,7.75
2023-02-03T12:29:27.721Z,7.76
2023-02-03T12:32:07.506Z,7.80
2023-02-03T12:34:46.614Z,7.76
2023-02-03T12:37:55.779Z,7.75
2023-02-03T12:40:39.309Z,7.73
2023-02-03T12:43:31.832Z,7.71
2023-02-03T12:46:08.431Z,7.65
2023-02-03T12:48:58.709Z,7.61
2023-02-03T12:51:37.569Z,7.60
2023-02-03T12:54:23.291Z,7.56
2023-02-03T12:57:00.335Z,7.55
2023-02-03T12:59:36.373Z,7.59
2023-02-03T13:02:26.263Z,7.59
2023-02-03T13:05:05.109Z,7.56
2023-02-03T13:07:46.746Z,7.55
2023-02-03T13:10:29.052Z,7.56
2023-02-03T13:13:03.378Z,7.59
2023-02-03T13:15:43.844Z,7.58
2023-02-03T13:18:40.056Z,7.63
2023-02-03T13:21:12.639Z,7.67
2023-02-03T13:23:44.764Z,7.70
2023-02-03T13:26:54.245Z,7.76
2023-02-03T13:29:35.119Z,7.76
2023-02-03T13:32:28.093Z,7.78
2023-02-03T13:35:43.102Z,7.73
2023-02-03T13:38:41.836Z,7.75
2023-02-03T13:41:18.100Z,7.76
2023-02-03T13:43:52.861Z,7.72
2023-02-03T13:46:29.359Z,7.74
2023-02-03T13:49:04.115Z,7.70
2023-02-03T13:51:37.767Z,7.72
2023-02-03T13:54:30.393Z,7.73
2023-02-03T13:57:09.071Z,7.72
2023-02-03T13:59:45.914Z,7.73
2023-02-03T14:02:25.523Z,7.75
2023-02-03T14:05:02.137Z,7.74
2023-02-03T14:07:35.422Z,7.76
2023-02-03T14:10:16.006Z,7.80
2023-02-03T14:12:50.858Z,7.78
2023-02-03T14:15:26.272Z,7.75
2023-02-03T14:18:41.271Z,7.76
2023-02-03T14:21:20.857Z,7.80
2023-02-03T14:24:03.981Z,7.78
2023-02-03T14:26:47.786Z,7.74
2023-02-03T14:29:29.995Z,7.69
2023-02-03T14:32:09.735Z,7.69
2023-02-03T14:34:51.719Z,7.69
2023-02-03T14:37:26.999Z,7.65
2023-02-03T14:40:23.582Z,7.57
2023-02-03T14:43:28.284Z,7.50
2023-02-03T14:46:18.141Z,7.50
2023-02-03T14:49:14.137Z,7.40
2023-02-03T14:52:03.900Z,7.37
2023-02-03T14:55:15.599Z,7.34
2023-02-03T14:57:49.567Z,7.29
2023-02-03T15:00:25.591Z,7.25
2023-02-03T15:03:21.078Z,7.16
2023-02-03T15:05:57.601Z,7.06
2023-02-03T15:08:47.504Z,7.04
2023-02-03T15:11:27.044Z,6.94
2023-02-03T15:14:34.313Z,6.88
2023-02-03T15:17:24.784Z,6.82
2023-02-03T15:19:56.563Z,6.79
2023-02-03T15:22:31.014Z,6.80
2023-02-03T15:25:15.993Z,6.71
2023-02-03T15:27:51.852Z,6.64
2023-02-03T15:30:28.664Z,6.60
2023-02-03T15:33:01.350Z,6.62
2023-02-03T15:35:40.875Z,6.58
2023-02-03T15:38:37.101Z,6.55
2023-02-03T15:41:24.542Z,6.57
2023-02-03T15:44:01.539Z,6.54
2023-02-03T15:46:44.033Z,6.53
2023-02-03T15:49:32.361Z,6.57
2023-02-03T15:52:16.828Z,6.63
2023-02-03T15:55:05.290Z,6.42
2023-02-03T15:57:40.334Z,6.26
2023-02-03T16:00:29.393Z,6.13
2023-02-03T16:03:05.091Z,6.14
2023-02-03T16:05:44.810Z,6.11
2023-02-03T16:08:49.143Z,6.08
2023-02-03T16:11:40.179Z,6.11
2023-02-03T16:14:32.266Z,6.14
2023-02-03T16:17:06.094Z,6.06
2023-02-03T16:19:41.186Z,6.08
2023-02-03T16:22:30.351Z,6.02
2023-02-03T16:25:22.402Z,6.01
2023-02-03T16:28:36.127Z,6.02
2023-02-03T16:31:34.794Z,5.87
2023-02-03T16:34:37.964Z,5.76
2023-02-03T16:37:39.821Z,5.71
2023-02-03T16:40:36.692Z,5.67
2023-02-03T16:43:32.675Z,5.63
2023-02-03T16:46:30.897Z,5.61
2023-02-03T16:49:21.679Z,5.69
2023-02-03T16:51:59.439Z,5.67
2023-02-03T16:54:31.515Z,5.69
2023-02-03T16:57:03.271Z,5.69
2023-02-03T16:59:34.971Z,5.73
2023-02-03T17:02:07.022Z,5.70
2023-02-03T17:04:40.297Z,5.77
2023-02-03T17:07:11.983Z,5.75
2023-02-03T17:09:43.842Z,5.70
2023-02-03T17:12:15.670Z,5.69
2023-02-03T17:14:47.354Z,5.72
2023-02-03T17:17:19.043Z,5.71
2023-02-03T17:19:50.831Z,5.72
2023-02-03T17:22:27.350Z,5.70
2023-02-03T17:24:59.073Z,5.68
2023-02-03T17:27:30.788Z,5.68
2023-02-03T17:30:04.197Z,5.76
2023-02-03T17:32:36.276Z,5.77
2023-02-03T17:35:08.384Z,5.77
2023-02-03T17:37:40.035Z,5.77
2023-02-03T17:54:21.047Z,5.83
2023-02-03T17:56:53.039Z,5.84
2023-02-03T17:59:24.691Z,5.91
2023-02-03T18:01:56.375Z,5.93
2023-02-03T18:04:28.154Z,5.90
2023-02-03T18:06:59.846Z,5.88
2023-02-03T18:09:34.569Z,5.90
2023-02-03T18:12:06.360Z,5.90
2023-02-03T18:14:38.109Z,5.95
2023-02-03T18:17:11.139Z,5.96
2023-02-03T18:19:46.776Z,5.98
2023-02-03T18:22:22.459Z,5.96
2023-02-03T18:24:55.463Z,5.96
2023-02-03T18:27:30.905Z,6.00
2023-02-03T18:30:06.320Z,6.03
2023-02-03T18:32:38.390Z,6.08
2023-02-03T18:35:13.941Z,6.15
2023-02-03T18:37:45.750Z,6.18
2023-02-03T18:40:17.612Z,6.20
2023-02-03T18:42:50.866Z,6.23
2023-02-03T18:45:23.184Z,6.17
2023-02-03T18:48:01.403Z,6.22
2023-02-03T18:50:33.111Z,6.25
2023-02-03T18:53:04.882Z,6.27
2023-02-03T18:55:45.651Z,6.27
2023-02-03T18:58:17.755Z,6.28
2023-02-03T19:00:50.449Z,6.27
2023-02-03T19:03:24.915Z,6.30
2023-02-03T19:05:56.628Z,6.37
2023-02-03T19:08:28.420Z,6.37
2023-02-03T19:11:00.338Z,6.40
2023-02-03T19:13:35.019Z,6.42
2023-02-03T19:16:08.447Z,6.45
2023-02-03T19:18:42.152Z,6.52
2023-02-03T19:21:17.534Z,6.55
2023-02-03T19:23:49.256Z,6.54
2023-02-03T19:26:21.070Z,6.56
2023-02-03T19:28:52.856Z,6.56
2023-02-03T19:31:24.922Z,6.58
2023-02-03T19:33:58.999Z,6.58
2023-02-03T19:36:32.235Z,6.57
2023-02-03T19:39:04.031Z,6.61
2023-02-03T19:41:36.470Z,6.62
2023-02-03T19:44:08.286Z,6.59
2023-02-03T19:46:43.117Z,6.66
2023-02-03T19:49:18.601Z,6.71
2023-02-03T19:51:50.375Z,6.69
2023-02-03T19:54:22.044Z,6.69
2023-02-03T19:56:57.747Z,6.68
2023-02-03T19:59:33.504Z,6.70
2023-02-03T20:02:14.507Z,6.74
2023-02-03T20:04:50.185Z,6.74
2023-02-03T20:07:23.576Z,6.75
2023-02-03T20:10:01.257Z,6.74
2023-02-03T20:12:32.995Z,6.81
2023-02-03T20:15:08.357Z,6.78
2023-02-03T20:17:57.926Z,6.75
2023-02-03T20:20:33.930Z,6.73
2023-02-03T20:23:09.894Z,6.71
2023-02-03T20:25:42.729Z,6.69
2023-02-03T20:28:14.533Z,6.70
2023-02-03T20:30:46.810Z,6.72
2023-02-03T20:33:19.995Z,6.74
2023-02-03T20:35:54.459Z,6.72
2023-02-03T20:38:29.144Z,6.72
2023-02-03T20:41:00.782Z,6.71
2023-02-03T20:43:32.513Z,6.71
2023-02-03T20:46:15.943Z,6.75
2023-02-03T20:48:47.698Z,6.79
2023-02-03T20:51:21.081Z,6.75
2023-02-03T20:53:53.346Z,6.75
2023-02-03T20:56:26.528Z,6.73
2023-02-03T20:59:01.262Z,6.71
2023-02-03T21:01:33.240Z,6.65
2023-02-03T21:04:33.925Z,6.64
2023-02-03T21:07:18.120Z,6.64
2023-02-03T21:09:52.365Z,6.61
2023-02-03T21:12:28.353Z,6.63
2023-02-03T21:15:00.442Z,6.61
2023-02-03T21:17:35.726Z,6.60
2023-02-03T21:20:22.109Z,6.63
2023-02-03T21:22:55.053Z,6.66
2023-02-03T21:25:29.730Z,6.66
2023-02-03T21:28:05.544Z,6.67
2023-02-03T21:30:38.560Z,6.65
2023-02-03T21:33:29.313Z,6.66
2023-02-03T21:36:01.966Z,6.66
2023-02-03T21:38:33.883Z,6.69
2023-02-03T21:41:16.119Z,6.64
2023-02-03T21:43:51.743Z,6.61
2023-02-03T21:46:34.233Z,6.65
2023-02-03T21:49:07.498Z,6.67
2023-02-03T21:51:39.458Z,6.66
2023-02-03T21:54:26.960Z,6.66
2023-02-03T21:56:59.445Z,6.65
2023-02-03T21:59:41.516Z,6.63
2023-02-03T22:02:42.790Z,6.64
2023-02-03T22:05:16.447Z,6.57
2023-02-03T22:07:48.166Z,6.58
2023-02-03T22:10:19.872Z,6.61
2023-02-03T22:12:51.516Z,6.62
2023-02-03T22:15:23.262Z,6.59
2023-02-03T22:17:54.957Z,6.58
2023-02-03T22:20:29.130Z,6.59
2023-02-03T22:23:01.043Z,6.54
2023-02-03T22:25:32.910Z,6.55
2023-02-03T22:28:10.034Z,6.54
2023-02-03T22:30:42.319Z,6.52
2023-02-03T22:33:14.049Z,6.51
2023-02-03T22:35:46.251Z,6.52
2023-02-03T22:38:17.944Z,6.53
2023-02-03T22:40:55.985Z,6.52
2023-02-03T22:43:29.478Z,6.54
2023-02-03T22:46:06.775Z,6.55
2023-02-03T22:48:38.560Z,6.55
2023-02-03T22:51:10.252Z,6.57
2023-02-03T22:53:45.053Z,6.57
2023-02-03T22:56:18.759Z,6.56
2023-02-03T22:58:50.477Z,6.57
2023-02-03T23:01:22.192Z,6.57
2023-02-03T23:03:53.863Z,6.62
2023-02-03T23:06:31.584Z,6.57
2023-02-03T23:09:03.482Z,6.62
2023-02-03T23:11:38.257Z,6.57
2023-02-03T23:14:10.573Z,6.57
2023-02-03T23:16:42.640Z,6.57
2023-02-03T23:19:14.524Z,6.59
2023-02-03T23:21:46.395Z,6.61
2023-02-03T23:24:19.094Z,6.62
2023-02-03T23:26:50.900Z,6.61
2023-02-03T23:29:22.586Z,6.58
2023-02-03T23:31:54.405Z,6.56
2023-02-03T23:34:44.755Z,6.55
2023-02-03T23:37:16.964Z,6.58
2023-02-03T23:39:50.474Z,6.56
2023-02-03T23:42:22.651Z,6.52
2023-02-03T23:44:56.345Z,6.44
2023-02-03T23:47:29.420Z,6.42
2023-02-03T23:50:01.116Z,6.44
2023-02-03T23:52:35.813Z,6.40
2023-02-03T23:55:15.809Z,6.39
2023-02-03T23:57:47.689Z,6.39
